Protégé : Vidéo Thoven Dejardin.

Protégé : Vidéo Thoven Dejardin.

Cette publication est protégée par un mot de passe. Pour la voir, veuillez saisir votre mot de passe ci-dessous :

METAR :

LFQA 292100Z AUTO 22011KT 9999 OVC043 14/11 Q1021


vue en direct sur l'aérodrome
mentions légales politique de confidentialité
Cochet Concept
cx